createdAt,value
2022-12-13T00:01:15.536Z,-78
2022-12-13T00:03:43.333Z,-78
2022-12-13T00:06:11.258Z,-78
2022-12-13T00:08:38.984Z,-77
2022-12-13T00:11:07.008Z,-77
2022-12-13T00:13:35.228Z,-77
2022-12-13T00:16:02.948Z,-77
2022-12-13T00:18:30.675Z,-77
2022-12-13T00:20:59.505Z,-78
2022-12-13T00:23:27.185Z,-78
2022-12-13T00:25:54.930Z,-78
2022-12-13T00:28:22.712Z,-78
2022-12-13T00:30:50.514Z,-78
2022-12-13T00:33:18.313Z,-78
2022-12-13T00:35:46.055Z,-78
2022-12-13T00:38:13.763Z,-78
2022-12-13T00:40:41.559Z,-78
2022-12-13T00:43:09.285Z,-78
2022-12-13T00:45:38.267Z,-78
2022-12-13T00:48:06.108Z,-78
2022-12-13T00:50:33.788Z,-77
2022-12-13T00:53:01.555Z,-78
2022-12-13T00:55:29.321Z,-78
2022-12-13T00:57:57.155Z,-78
2022-12-13T01:00:25.787Z,-78
2022-12-13T01:02:53.531Z,-78
2022-12-13T01:05:46.049Z,-78
2022-12-13T01:08:08.962Z,-78
2022-12-13T01:10:36.725Z,-78
2022-12-13T01:13:04.456Z,-78
2022-12-13T01:15:32.276Z,-78
2022-12-13T01:18:00.020Z,-78
2022-12-13T01:20:27.762Z,-78
2022-12-13T01:22:55.546Z,-78
2022-12-13T01:25:23.250Z,-78
2022-12-13T01:27:50.968Z,-78
2022-12-13T01:30:18.748Z,-77
2022-12-13T01:32:46.470Z,-78
2022-12-13T01:35:14.859Z,-78
2022-12-13T01:37:43.136Z,-78
2022-12-13T01:40:15.946Z,-78
2022-12-13T01:42:44.242Z,-78
2022-12-13T01:45:12.065Z,-78
2022-12-13T01:47:39.927Z,-78
2022-12-13T01:50:07.720Z,-78
2022-12-13T01:52:36.027Z,-77
2022-12-13T01:55:04.207Z,-78
2022-12-13T01:57:32.023Z,-77
2022-12-13T02:34:49.523Z,-78
2022-12-13T02:37:18.131Z,-77
2022-12-13T02:39:46.372Z,-78
2022-12-13T02:42:21.578Z,-77
2022-12-13T02:44:49.931Z,-78
2022-12-13T02:47:22.073Z,-77
2022-12-13T02:49:50.335Z,-77
2022-12-13T02:52:22.398Z,-78
2022-12-13T02:54:50.508Z,-78
2022-12-13T02:57:21.778Z,-78
2022-12-13T02:59:52.601Z,-78
2022-12-13T03:02:21.549Z,-78
2022-12-13T03:05:16.890Z,-78
2022-12-13T03:07:44.818Z,-78
2022-12-13T03:10:12.535Z,-77
2022-12-13T03:12:58.049Z,-78
2022-12-13T03:15:26.084Z,-78
2022-12-13T03:17:53.841Z,-78
2022-12-13T03:20:22.756Z,-78
2022-12-13T03:22:51.282Z,-78
2022-12-13T03:25:31.428Z,-78
2022-12-13T03:28:01.128Z,-78
2022-12-13T03:30:29.477Z,-78
2022-12-13T03:32:57.202Z,-77
2022-12-13T03:35:25.344Z,-77
2022-12-13T03:38:02.904Z,-78
2022-12-13T03:40:30.685Z,-77
2022-12-13T03:42:58.477Z,-78
2022-12-13T03:45:26.181Z,-78
2022-12-13T03:47:54.063Z,-77
2022-12-13T03:50:26.861Z,-77
2022-12-13T03:52:55.101Z,-78
2022-12-13T03:55:23.068Z,-78
2022-12-13T03:57:50.832Z,-78
2022-12-13T04:00:18.626Z,-78
2022-12-13T04:02:46.375Z,-78
2022-12-13T04:05:14.327Z,-77
2022-12-13T04:07:48.192Z,-77
2022-12-13T04:10:26.371Z,-77
2022-12-13T04:13:12.093Z,-78
2022-12-13T04:15:39.792Z,-78
2022-12-13T04:18:07.515Z,-78
2022-12-13T04:20:35.206Z,-78
2022-12-13T04:23:10.264Z,-77
2022-12-13T04:25:38.428Z,-78
2022-12-13T04:28:06.435Z,-77
2022-12-13T04:30:34.171Z,-78
2022-12-13T04:33:01.977Z,-78
2022-12-13T04:35:29.881Z,-77
2022-12-13T04:37:58.092Z,-78
2022-12-13T04:40:26.286Z,-78
2022-12-13T04:42:54.686Z,-77
2022-12-13T04:45:22.471Z,-78
2022-12-13T04:47:50.278Z,-78
2022-12-13T04:50:18.021Z,-78
2022-12-13T04:52:45.941Z,-78
2022-12-13T04:55:13.959Z,-76
2022-12-13T04:57:41.892Z,-77
2022-12-13T05:00:09.993Z,-78
2022-12-13T05:02:37.764Z,-79
2022-12-13T05:05:05.514Z,-78
2022-12-13T05:07:33.358Z,-78
2022-12-13T05:10:01.105Z,-78
2022-12-13T05:12:28.935Z,-65
2022-12-13T05:14:56.854Z,-66
2022-12-13T05:17:24.596Z,-66
2022-12-13T05:19:52.396Z,-66
2022-12-13T05:22:21.170Z,-66
2022-12-13T05:24:49.234Z,-66
2022-12-13T05:27:24.748Z,-65
2022-12-13T05:30:03.189Z,-66
2022-12-13T05:32:42.471Z,-65
2022-12-13T05:35:12.387Z,-65
2022-12-13T05:37:40.374Z,-66
2022-12-13T05:40:08.180Z,-65
2022-12-13T05:42:35.962Z,-65
2022-12-13T05:45:03.759Z,-65
2022-12-13T05:47:31.645Z,-66
2022-12-13T05:49:59.525Z,-65
2022-12-13T05:52:30.550Z,-66
2022-12-13T05:55:01.085Z,-66
2022-12-13T05:57:29.512Z,-66
2022-12-13T05:59:57.343Z,-66
2022-12-13T06:02:25.248Z,-66
2022-12-13T06:04:53.195Z,-66
2022-12-13T06:07:21.057Z,-66
2022-12-13T06:09:48.863Z,-66
2022-12-13T06:12:31.543Z,-66
2022-12-13T06:15:00.829Z,-66
2022-12-13T06:17:29.269Z,-66
2022-12-13T06:19:57.132Z,-65
2022-12-13T06:22:25.026Z,-66
2022-12-13T06:24:52.914Z,-66
2022-12-13T06:27:21.153Z,-65
2022-12-13T06:29:48.939Z,-66
2022-12-13T06:32:16.745Z,-66
2022-12-13T06:34:44.537Z,-66
2022-12-13T06:37:12.354Z,-66
2022-12-13T06:39:40.488Z,-66
2022-12-13T06:42:08.496Z,-66
2022-12-13T06:44:36.334Z,-66
2022-12-13T06:47:11.931Z,-66
2022-12-13T06:49:40.992Z,-66
2022-12-13T06:52:09.180Z,-66
2022-12-13T06:54:36.970Z,-66
2022-12-13T06:57:04.736Z,-67
2022-12-13T06:59:32.545Z,-66
2022-12-13T07:02:03.490Z,-66
2022-12-13T07:04:31.889Z,-66
2022-12-13T07:07:01.204Z,-66
2022-12-13T07:09:29.991Z,-66
2022-12-13T07:11:57.736Z,-66
2022-12-13T07:14:25.541Z,-66
2022-12-13T07:16:59.415Z,-66
2022-12-13T07:19:42.347Z,-66
2022-12-13T07:22:11.974Z,-66
2022-12-13T07:24:39.783Z,-66
2022-12-13T07:27:07.576Z,-66
2022-12-13T07:29:35.440Z,-66
2022-12-13T07:32:03.273Z,-65
2022-12-13T07:34:31.104Z,-66
2022-12-13T07:37:01.422Z,-66
2022-12-13T07:39:29.261Z,-65
2022-12-13T07:41:57.064Z,-66
2022-12-13T07:44:24.994Z,-66
2022-12-13T07:46:52.969Z,-66
2022-12-13T07:49:20.891Z,-66
2022-12-13T07:51:49.094Z,-66
2022-12-13T07:54:16.905Z,-66
2022-12-13T07:56:44.695Z,-66
2022-12-13T07:59:13.859Z,-65
2022-12-13T08:01:41.712Z,-66
2022-12-13T08:04:09.948Z,-65
2022-12-13T08:06:37.805Z,-66
2022-12-13T08:09:05.784Z,-66
2022-12-13T08:11:33.658Z,-66
2022-12-13T08:14:01.837Z,-66
2022-12-13T08:16:30.207Z,-66
2022-12-13T08:19:02.365Z,-66
2022-12-13T08:21:53.211Z,-65
2022-12-13T08:24:19.448Z,-65
2022-12-13T08:26:47.213Z,-65
2022-12-13T08:29:22.773Z,-66
2022-12-13T08:32:01.778Z,-65
2022-12-13T08:34:29.874Z,-66
2022-12-13T08:37:01.559Z,-66
2022-12-13T08:39:34.182Z,-65
2022-12-13T08:42:16.680Z,-65
2022-12-13T08:44:46.888Z,-65
2022-12-13T08:47:23.062Z,-65
2022-12-13T08:49:51.745Z,-65
2022-12-13T08:52:19.573Z,-65
2022-12-13T08:54:47.374Z,-65
2022-12-13T08:57:15.779Z,-65
2022-12-13T08:59:43.571Z,-66
2022-12-13T09:02:11.386Z,-65
2022-12-13T09:04:39.200Z,-65
2022-12-13T09:07:06.974Z,-65
2022-12-13T09:09:34.766Z,-65
2022-12-13T09:12:10.325Z,-66
2022-12-13T09:14:45.562Z,-65
2022-12-13T09:17:14.811Z,-65
2022-12-13T09:19:57.763Z,-66
2022-12-13T09:22:33.139Z,-66
2022-12-13T09:25:02.893Z,-66
2022-12-13T09:27:31.042Z,-66
2022-12-13T09:30:08.085Z,-66
2022-12-13T09:32:35.943Z,-66
2022-12-13T09:35:03.716Z,-66
2022-12-13T09:37:32.166Z,-66
2022-12-13T09:39:59.936Z,-66
2022-12-13T09:42:45.042Z,-66
2022-12-13T09:45:22.365Z,-66
2022-12-13T09:47:50.887Z,-66
2022-12-13T09:50:18.752Z,-66
2022-12-13T09:52:52.813Z,-66
2022-12-13T09:55:29.253Z,-68
2022-12-13T09:57:58.167Z,-66
2022-12-13T10:00:27.509Z,-66
2022-12-13T10:02:55.521Z,-66
2022-12-13T10:05:26.115Z,-66
2022-12-13T10:08:03.653Z,-66
2022-12-13T10:10:31.622Z,-66
2022-12-13T10:12:59.482Z,-66
2022-12-13T10:15:27.232Z,-66
2022-12-13T10:17:55.989Z,-66
2022-12-13T10:20:26.076Z,-66
2022-12-13T10:23:52.546Z,-67
2022-12-13T10:25:42.151Z,-66
2022-12-13T10:28:10.105Z,-66
2022-12-13T10:30:37.955Z,-66
2022-12-13T10:33:06.190Z,-66
2022-12-13T10:35:34.703Z,-66
2022-12-13T10:38:02.752Z,-66
2022-12-13T10:40:31.921Z,-66
2022-12-13T10:43:00.773Z,-66
2022-12-13T10:45:28.853Z,-66
2022-12-13T10:48:02.214Z,-66
2022-12-13T10:50:31.749Z,-66
2022-12-13T10:53:00.172Z,-66
2022-12-13T10:55:28.682Z,-66
2022-12-13T10:57:56.467Z,-65
2022-12-13T11:00:24.318Z,-66
2022-12-13T11:02:52.189Z,-65
2022-12-13T11:05:23.278Z,-66
2022-12-13T11:07:51.549Z,-66
2022-12-13T11:10:23.742Z,-66
2022-12-13T11:12:54.939Z,-79
2022-12-13T11:15:23.124Z,-79
2022-12-13T11:17:51.175Z,-79
2022-12-13T11:20:19.132Z,-79
2022-12-13T11:22:46.990Z,-78
2022-12-13T11:25:14.799Z,-78
2022-12-13T11:27:42.628Z,-78
2022-12-13T11:30:10.585Z,-79
2022-12-13T11:32:38.337Z,-78
2022-12-13T11:35:07.859Z,-79
2022-12-13T11:37:36.248Z,-79
2022-12-13T11:40:04.023Z,-79
2022-12-13T11:42:32.029Z,-79
2022-12-13T11:45:00.075Z,-79
2022-12-13T11:47:27.814Z,-79
2022-12-13T11:49:55.656Z,-79
2022-12-13T11:52:23.439Z,-78
2022-12-13T11:54:51.322Z,-80
2022-12-13T11:57:19.126Z,-78
2022-12-13T11:59:46.897Z,-79
2022-12-13T12:02:16.835Z,-79
2022-12-13T12:04:44.884Z,-78
2022-12-13T12:07:31.919Z,-79
2022-12-13T12:10:00.606Z,-79
2022-12-13T12:12:28.532Z,-80
2022-12-13T12:14:56.329Z,-79
2022-12-13T12:17:37.835Z,-79
2022-12-13T12:20:10.170Z,-79
2022-12-13T12:22:37.947Z,-78
2022-12-13T12:25:05.660Z,-79
2022-12-13T12:27:33.426Z,-79
2022-12-13T12:30:01.153Z,-78
2022-12-13T12:32:28.937Z,-79
2022-12-13T12:34:56.768Z,-79
2022-12-13T12:37:24.531Z,-78
2022-12-13T12:39:52.326Z,-79
2022-12-13T12:42:20.152Z,-79
2022-12-13T12:44:47.931Z,-79
2022-12-13T12:50:03.477Z,-80
2022-12-13T12:52:32.399Z,-80
2022-12-13T12:55:03.655Z,-79
2022-12-13T12:57:31.412Z,-79
2022-12-13T13:00:01.711Z,-79
2022-12-13T13:02:29.852Z,-77
2022-12-13T13:04:57.682Z,-79
2022-12-13T13:07:25.406Z,-79
2022-12-13T13:09:54.905Z,-78
2022-12-13T13:12:29.934Z,-79
2022-12-13T13:14:58.383Z,-79
2022-12-13T13:17:26.078Z,-79
2022-12-13T13:20:01.437Z,-79
2022-12-13T13:22:42.787Z,-78
2022-12-13T13:25:12.292Z,-78
2022-12-13T13:27:40.012Z,-79
2022-12-13T13:30:07.796Z,-78
2022-12-13T13:32:35.590Z,-77
2022-12-13T13:35:03.368Z,-77
2022-12-13T13:37:31.092Z,-78
2022-12-13T13:39:58.863Z,-77
2022-12-13T13:42:26.588Z,-77
2022-12-13T13:44:54.323Z,-79
2022-12-13T13:47:22.287Z,-78
2022-12-13T13:49:50.063Z,-79
2022-12-13T13:52:26.065Z,-78
2022-12-13T13:54:54.302Z,-78
2022-12-13T13:57:28.892Z,-78
2022-12-13T14:00:11.257Z,-79
2022-12-13T14:02:39.044Z,-78
2022-12-13T14:05:06.854Z,-78
2022-12-13T14:07:34.784Z,-77
2022-12-13T14:10:02.628Z,-79
2022-12-13T14:12:30.406Z,-81
2022-12-13T14:15:01.346Z,-80
2022-12-13T14:17:29.590Z,-81
2022-12-13T14:19:57.425Z,-80
2022-12-13T14:22:25.237Z,-80
2022-12-13T14:24:52.953Z,-79
2022-12-13T14:27:20.789Z,-81
2022-12-13T14:29:58.582Z,-79
2022-12-13T14:32:27.537Z,-80
2022-12-13T14:34:55.435Z,-79
2022-12-13T14:37:23.245Z,-81
2022-12-13T14:39:51.186Z,-81
2022-12-13T14:42:19.773Z,-80
2022-12-13T14:44:47.495Z,-81
2022-12-13T14:47:15.321Z,-81
2022-12-13T14:49:48.968Z,-79
2022-12-13T14:52:26.706Z,-79
2022-12-13T14:54:58.125Z,-79
2022-12-13T14:57:27.051Z,-80
2022-12-13T14:59:55.275Z,-79
2022-12-13T15:02:30.844Z,-81
2022-12-13T15:04:59.490Z,-80
2022-12-13T15:07:27.530Z,-80
2022-12-13T15:09:55.239Z,-80
2022-12-13T15:12:25.122Z,-80
2022-12-13T15:14:53.641Z,-81
2022-12-13T15:17:21.497Z,-80
2022-12-13T15:19:49.323Z,-80
2022-12-13T15:22:17.230Z,-80
2022-12-13T15:24:47.052Z,-81
2022-12-13T15:27:14.765Z,-81
2022-12-13T15:29:44.822Z,-80
2022-12-13T15:32:12.607Z,-81
2022-12-13T15:34:40.424Z,-80
2022-12-13T15:37:08.180Z,-80
2022-12-13T15:39:55.671Z,-79
2022-12-13T15:42:23.449Z,-80
2022-12-13T15:44:53.730Z,-80
2022-12-13T15:47:28.513Z,-80
2022-12-13T15:49:58.816Z,-79
2022-12-13T15:52:29.519Z,-78
2022-12-13T15:54:57.430Z,-80
2022-12-13T15:57:25.131Z,-79
2022-12-13T15:59:52.983Z,-78
2022-12-13T16:02:20.828Z,-78
2022-12-13T16:04:48.587Z,-78
2022-12-13T16:07:16.285Z,-79
2022-12-13T16:09:43.989Z,-79
2022-12-13T16:12:11.705Z,-79
2022-12-13T16:14:40.957Z,-79
2022-12-13T16:17:17.574Z,-79
2022-12-13T16:19:45.500Z,-79
2022-12-13T16:22:13.249Z,-77
2022-12-13T16:24:41.016Z,-79
2022-12-13T16:27:09.126Z,-78
2022-12-13T16:29:37.022Z,-79
2022-12-13T16:32:08.021Z,-79
2022-12-13T16:34:36.744Z,-79
2022-12-13T16:37:08.828Z,-79
2022-12-13T16:39:52.260Z,-76
2022-12-13T16:42:19.968Z,-77
2022-12-13T16:44:47.678Z,-76
2022-12-13T16:47:24.786Z,-77
2022-12-13T16:50:01.649Z,-77
2022-12-13T16:52:29.448Z,-83
2022-12-13T16:55:00.587Z,-78
2022-12-13T16:57:28.339Z,-79
2022-12-13T16:59:56.132Z,-78
2022-12-13T17:02:24.001Z,-80
2022-12-13T17:04:51.954Z,-78
2022-12-13T17:07:19.742Z,-77
2022-12-13T17:09:49.607Z,-78
2022-12-13T17:12:17.771Z,31
2022-12-13T17:14:45.639Z,-69
2022-12-13T17:17:17.563Z,-69
2022-12-13T17:19:45.903Z,-69
2022-12-13T17:22:13.700Z,-69
2022-12-13T17:24:41.458Z,-69
2022-12-13T17:27:09.666Z,-69
2022-12-13T17:29:37.408Z,-69
2022-12-13T17:32:05.183Z,-69
2022-12-13T17:34:33.113Z,-69
2022-12-13T17:37:04.369Z,-69
2022-12-13T17:39:34.803Z,-69
2022-12-13T17:42:02.601Z,-69
2022-12-13T17:44:30.413Z,-69
2022-12-13T17:46:58.327Z,-69
2022-12-13T17:49:26.109Z,-69
2022-12-13T17:51:54.228Z,-69
2022-12-13T17:54:22.721Z,-69
2022-12-13T17:56:50.625Z,-69
2022-12-13T17:59:18.481Z,-69
2022-12-13T18:01:46.268Z,-69
2022-12-13T18:04:14.051Z,-69
2022-12-13T18:06:41.815Z,-69
2022-12-13T18:09:09.652Z,-69
2022-12-13T18:11:37.739Z,-69
2022-12-13T18:14:05.472Z,-69
2022-12-13T18:16:38.829Z,-69
2022-12-13T18:19:07.247Z,-69
2022-12-13T18:21:35.414Z,-69
2022-12-13T18:24:03.272Z,-69
2022-12-13T18:26:31.088Z,-69
2022-12-13T18:28:58.895Z,-69
2022-12-13T18:31:28.047Z,-69
2022-12-13T18:33:56.023Z,-69
2022-12-13T18:36:23.756Z,-69
2022-12-13T18:38:51.664Z,-69
2022-12-13T18:41:19.511Z,-69
2022-12-13T18:43:47.608Z,-70
2022-12-13T18:46:15.589Z,-70
2022-12-13T18:48:43.544Z,-70
2022-12-13T18:51:11.530Z,-70
2022-12-13T18:53:39.392Z,-70
2022-12-13T18:56:10.427Z,-70
2022-12-13T18:58:42.208Z,-70
2022-12-13T19:01:10.512Z,-69
2022-12-13T19:03:38.332Z,-69
2022-12-13T19:06:06.081Z,-69
2022-12-13T19:08:34.103Z,-69
2022-12-13T19:11:02.131Z,-70
2022-12-13T19:13:30.080Z,-69
2022-12-13T19:15:58.235Z,-69
2022-12-13T19:18:26.152Z,-69
2022-12-13T19:20:53.931Z,-69
2022-12-13T19:23:21.748Z,-69
2022-12-13T19:25:49.588Z,-69
2022-12-13T19:28:17.725Z,-69
2022-12-13T19:30:45.518Z,-69
2022-12-13T19:33:13.447Z,-69
2022-12-13T19:35:41.457Z,-69
2022-12-13T19:38:09.617Z,-70
2022-12-13T19:40:37.569Z,-69
2022-12-13T19:43:06.342Z,-70
2022-12-13T19:45:34.127Z,-70
2022-12-13T19:48:01.965Z,-69
2022-12-13T19:50:29.945Z,-70
2022-12-13T19:52:57.774Z,-70
2022-12-13T19:55:25.546Z,-70
2022-12-13T19:57:54.044Z,-69
2022-12-13T20:00:21.871Z,-69
2022-12-13T20:02:50.562Z,-70
2022-12-13T20:05:18.484Z,-70
2022-12-13T20:07:46.301Z,-69
2022-12-13T20:10:16.362Z,-69
2022-12-13T20:12:44.145Z,-69
2022-12-13T20:15:12.048Z,-69
2022-12-13T20:17:39.927Z,-69
2022-12-13T20:20:07.748Z,-69
2022-12-13T20:22:35.596Z,-69
2022-12-13T20:25:03.405Z,-69
2022-12-13T20:27:31.266Z,-69
2022-12-13T20:29:59.225Z,-69
2022-12-13T20:32:27.172Z,-70
2022-12-13T20:34:55.281Z,-69
2022-12-13T20:37:23.139Z,-69
2022-12-13T20:39:50.976Z,-69
2022-12-13T20:42:18.783Z,-68
2022-12-13T20:44:46.875Z,-69
2022-12-13T20:47:14.731Z,-69
2022-12-13T20:49:42.779Z,-69
2022-12-13T20:52:17.004Z,-68
2022-12-13T20:54:44.809Z,-69
2022-12-13T20:57:12.677Z,-69
2022-12-13T20:59:40.493Z,-69
2022-12-13T21:02:08.477Z,-69
2022-12-13T21:04:36.384Z,-69
2022-12-13T21:07:04.246Z,-69
2022-12-13T21:09:31.961Z,-69
2022-12-13T21:11:59.781Z,-69
2022-12-13T21:14:28.489Z,-69
2022-12-13T21:16:56.315Z,-69
2022-12-13T21:19:24.218Z,-69
2022-12-13T21:21:52.009Z,-69
2022-12-13T21:24:19.876Z,-68
2022-12-13T21:26:47.670Z,-69
2022-12-13T21:29:16.346Z,-68
2022-12-13T21:31:44.358Z,-68
2022-12-13T21:34:16.807Z,-69
2022-12-13T21:36:44.628Z,-69
2022-12-13T21:39:13.944Z,-69
2022-12-13T21:41:41.892Z,-68
2022-12-13T21:44:09.768Z,-68
2022-12-13T21:49:25.382Z,-68
2022-12-13T21:51:53.154Z,-69
2022-12-13T21:54:20.946Z,-69
2022-12-13T21:57:08.619Z,-69
2022-12-13T21:59:36.412Z,-68
2022-12-13T22:02:14.518Z,-69
2022-12-13T22:04:43.584Z,-69
2022-12-13T22:07:11.493Z,-69
2022-12-13T22:09:39.275Z,-69
2022-12-13T22:12:07.188Z,-69
2022-12-13T22:14:35.076Z,-68
2022-12-13T22:17:02.925Z,-69
2022-12-13T22:19:30.843Z,-69
2022-12-13T22:21:58.639Z,-69
2022-12-13T22:24:26.742Z,-69
2022-12-13T22:26:54.518Z,-69
2022-12-13T22:29:22.313Z,-69
2022-12-13T22:31:50.200Z,-69
2022-12-13T22:34:18.131Z,-69
2022-12-13T22:36:45.963Z,-69
2022-12-13T22:39:13.723Z,-69
2022-12-13T22:41:41.536Z,-69
2022-12-13T22:44:09.348Z,-69
2022-12-13T22:46:37.317Z,-69
2022-12-13T22:49:05.206Z,-69
2022-12-13T22:51:33.014Z,-69
2022-12-13T22:54:00.792Z,-69
2022-12-13T22:56:28.625Z,-69
2022-12-13T22:58:56.488Z,-69
2022-12-13T23:01:24.428Z,-69
2022-12-13T23:03:52.202Z,-69
2022-12-13T23:06:20.128Z,-69
2022-12-13T23:08:48.062Z,-69
2022-12-13T23:11:33.615Z,-69
2022-12-13T23:14:01.374Z,-72
2022-12-13T23:16:29.251Z,-69
2022-12-13T23:19:16.922Z,-66
2022-12-13T23:21:48.527Z,-66
2022-12-13T23:24:16.615Z,-67
2022-12-13T23:26:44.607Z,-69
2022-12-13T23:29:12.429Z,-69
2022-12-13T23:31:40.463Z,-69
2022-12-13T23:34:08.273Z,-70
2022-12-13T23:36:36.012Z,-71
2022-12-13T23:39:04.147Z,-69
2022-12-13T23:41:33.971Z,-69
2022-12-13T23:44:02.003Z,-69
2022-12-13T23:46:30.106Z,-69
2022-12-13T23:48:58.042Z,-69
2022-12-13T23:51:25.846Z,-69
2022-12-13T23:53:53.630Z,-69
2022-12-13T23:56:21.407Z,-69
2022-12-13T23:58:49.264Z,-70
